sensor_id;sensor_type;location;lat;lon;timestamp;P1;durP1;ratioP1;P2;durP2;ratioP2
33926;SDS011;20485;50.992;5.550;2023-04-12T00:02:13;9.43;;;2.05;;
33926;SDS011;20485;50.992;5.550;2023-04-12T00:04:39;8.35;;;1.85;;
33926;SDS011;20485;50.992;5.550;2023-04-12T00:07:05;8.50;;;1.67;;
33926;SDS011;20485;50.992;5.550;2023-04-12T00:09:33;5.85;;;1.67;;
33926;SDS011;20485;50.992;5.550;2023-04-12T00:12:00;12.70;;;1.80;;
33926;SDS011;20485;50.992;5.550;2023-04-12T00:14:26;7.53;;;2.33;;
33926;SDS011;20485;50.992;5.550;2023-04-12T00:16:53;6.80;;;1.85;;
33926;SDS011;20485;50.992;5.550;2023-04-12T00:19:19;9.27;;;1.92;;
33926;SDS011;20485;50.992;5.550;2023-04-12T00:21:44;10.48;;;1.63;;
33926;SDS011;20485;50.992;5.550;2023-04-12T00:24:10;11.48;;;2.00;;
33926;SDS011;20485;50.992;5.550;2023-04-12T00:26:37;11.40;;;1.92;;
33926;SDS011;20485;50.992;5.550;2023-04-12T00:29:02;9.93;;;2.03;;
33926;SDS011;20485;50.992;5.550;2023-04-12T00:31:28;9.25;;;1.88;;
33926;SDS011;20485;50.992;5.550;2023-04-12T00:33:54;6.85;;;1.60;;
33926;SDS011;20485;50.992;5.550;2023-04-12T00:36:20;8.27;;;1.40;;
33926;SDS011;20485;50.992;5.550;2023-04-12T00:38:46;9.43;;;2.10;;
33926;SDS011;20485;50.992;5.550;2023-04-12T00:41:12;5.43;;;1.48;;
33926;SDS011;20485;50.992;5.550;2023-04-12T00:43:39;7.05;;;1.25;;
33926;SDS011;20485;50.992;5.550;2023-04-12T00:46:06;8.23;;;1.75;;
33926;SDS011;20485;50.992;5.550;2023-04-12T00:48:32;7.95;;;2.10;;
33926;SDS011;20485;50.992;5.550;2023-04-12T00:50:58;5.05;;;1.83;;
33926;SDS011;20485;50.992;5.550;2023-04-12T00:53:25;9.77;;;1.80;;
33926;SDS011;20485;50.992;5.550;2023-04-12T00:55:52;6.15;;;1.75;;
33926;SDS011;20485;50.992;5.550;2023-04-12T00:58:20;8.07;;;1.65;;
33926;SDS011;20485;50.992;5.550;2023-04-12T01:00:48;6.88;;;1.40;;
33926;SDS011;20485;50.992;5.550;2023-04-12T01:03:16;10.27;;;1.30;;
33926;SDS011;20485;50.992;5.550;2023-04-12T01:11:17;7.93;;;1.45;;
33926;SDS011;20485;50.992;5.550;2023-04-12T01:16:53;2.97;;;1.20;;
33926;SDS011;20485;50.992;5.550;2023-04-12T01:22:05;4.07;;;1.33;;
33926;SDS011;20485;50.992;5.550;2023-04-12T01:27:34;9.48;;;1.25;;
33926;SDS011;20485;50.992;5.550;2023-04-12T01:30:07;4.25;;;1.20;;
33926;SDS011;20485;50.992;5.550;2023-04-12T01:32:38;4.45;;;1.20;;
33926;SDS011;20485;50.992;5.550;2023-04-12T01:35:05;4.03;;;1.17;;
33926;SDS011;20485;50.992;5.550;2023-04-12T01:37:33;5.18;;;1.20;;
33926;SDS011;20485;50.992;5.550;2023-04-12T01:40:00;5.28;;;1.58;;
33926;SDS011;20485;50.992;5.550;2023-04-12T01:42:29;5.78;;;1.40;;
33926;SDS011;20485;50.992;5.550;2023-04-12T01:44:55;3.25;;;0.90;;
33926;SDS011;20485;50.992;5.550;2023-04-12T01:47:22;5.20;;;1.33;;
33926;SDS011;20485;50.992;5.550;2023-04-12T01:49:54;4.93;;;1.27;;
33926;SDS011;20485;50.992;5.550;2023-04-12T01:52:29;6.85;;;1.33;;
33926;SDS011;20485;50.992;5.550;2023-04-12T01:54:56;8.70;;;1.77;;
33926;SDS011;20485;50.992;5.550;2023-04-12T01:57:24;6.63;;;1.70;;
33926;SDS011;20485;50.992;5.550;2023-04-12T01:59:50;4.88;;;1.13;;
33926;SDS011;20485;50.992;5.550;2023-04-12T02:02:19;3.63;;;0.98;;
33926;SDS011;20485;50.992;5.550;2023-04-12T02:04:45;4.00;;;1.00;;
33926;SDS011;20485;50.992;5.550;2023-04-12T02:07:11;12.00;;;1.48;;
33926;SDS011;20485;50.992;5.550;2023-04-12T02:09:39;7.50;;;1.30;;
33926;SDS011;20485;50.992;5.550;2023-04-12T02:12:06;8.45;;;1.05;;
33926;SDS011;20485;50.992;5.550;2023-04-12T02:14:33;2.80;;;0.90;;
33926;SDS011;20485;50.992;5.550;2023-04-12T02:16:58;5.72;;;1.42;;
33926;SDS011;20485;50.992;5.550;2023-04-12T02:19:26;4.95;;;1.25;;
33926;SDS011;20485;50.992;5.550;2023-04-12T02:21:52;9.10;;;0.90;;
33926;SDS011;20485;50.992;5.550;2023-04-12T02:24:18;4.63;;;1.15;;
33926;SDS011;20485;50.992;5.550;2023-04-12T02:26:43;5.60;;;1.27;;
33926;SDS011;20485;50.992;5.550;2023-04-12T02:29:10;3.78;;;1.00;;
33926;SDS011;20485;50.992;5.550;2023-04-12T02:31:36;3.30;;;1.05;;
33926;SDS011;20485;50.992;5.550;2023-04-12T02:34:03;6.20;;;1.20;;
33926;SDS011;20485;50.992;5.550;2023-04-12T02:36:29;4.15;;;1.20;;
33926;SDS011;20485;50.992;5.550;2023-04-12T02:38:55;2.63;;;0.93;;
33926;SDS011;20485;50.992;5.550;2023-04-12T02:41:21;7.60;;;1.15;;
33926;SDS011;20485;50.992;5.550;2023-04-12T02:43:48;4.20;;;0.95;;
33926;SDS011;20485;50.992;5.550;2023-04-12T02:46:23;1.77;;;0.73;;
33926;SDS011;20485;50.992;5.550;2023-04-12T02:48:51;3.30;;;1.10;;
33926;SDS011;20485;50.992;5.550;2023-04-12T02:51:16;3.75;;;0.90;;
33926;SDS011;20485;50.992;5.550;2023-04-12T02:53:42;6.13;;;1.05;;
33926;SDS011;20485;50.992;5.550;2023-04-12T02:56:08;1.75;;;0.80;;
33926;SDS011;20485;50.992;5.550;2023-04-12T02:58:34;2.45;;;0.77;;
33926;SDS011;20485;50.992;5.550;2023-04-12T03:01:00;4.97;;;1.00;;
33926;SDS011;20485;50.992;5.550;2023-04-12T03:03:31;8.55;;;1.38;;
33926;SDS011;20485;50.992;5.550;2023-04-12T03:05:58;4.13;;;0.98;;
33926;SDS011;20485;50.992;5.550;2023-04-12T03:08:24;1.73;;;0.80;;
33926;SDS011;20485;50.992;5.550;2023-04-12T03:10:50;4.88;;;0.85;;
33926;SDS011;20485;50.992;5.550;2023-04-12T03:13:16;3.25;;;1.10;;
33926;SDS011;20485;50.992;5.550;2023-04-12T03:15:41;2.65;;;1.08;;
33926;SDS011;20485;50.992;5.550;2023-04-12T03:18:10;3.60;;;1.02;;
33926;SDS011;20485;50.992;5.550;2023-04-12T03:20:36;3.47;;;1.33;;
33926;SDS011;20485;50.992;5.550;2023-04-12T03:23:03;3.03;;;0.88;;
33926;SDS011;20485;50.992;5.550;2023-04-12T03:25:29;3.30;;;1.55;;
33926;SDS011;20485;50.992;5.550;2023-04-12T03:27:55;4.50;;;0.90;;
33926;SDS011;20485;50.992;5.550;2023-04-12T03:30:20;1.95;;;0.75;;
33926;SDS011;20485;50.992;5.550;2023-04-12T03:32:46;3.83;;;1.05;;
33926;SDS011;20485;50.992;5.550;2023-04-12T03:35:12;5.38;;;1.17;;
33926;SDS011;20485;50.992;5.550;2023-04-12T03:37:39;9.55;;;1.30;;
33926;SDS011;20485;50.992;5.550;2023-04-12T03:40:06;2.78;;;0.88;;
33926;SDS011;20485;50.992;5.550;2023-04-12T03:42:32;3.13;;;0.98;;
33926;SDS011;20485;50.992;5.550;2023-04-12T03:44:58;3.70;;;1.15;;
33926;SDS011;20485;50.992;5.550;2023-04-12T03:47:24;6.28;;;1.30;;
33926;SDS011;20485;50.992;5.550;2023-04-12T03:49:50;7.50;;;1.40;;
33926;SDS011;20485;50.992;5.550;2023-04-12T03:52:18;2.15;;;0.85;;
33926;SDS011;20485;50.992;5.550;2023-04-12T03:54:44;1.77;;;1.00;;
33926;SDS011;20485;50.992;5.550;2023-04-12T03:57:13;2.92;;;1.25;;
33926;SDS011;20485;50.992;5.550;2023-04-12T03:59:38;6.93;;;1.30;;
33926;SDS011;20485;50.992;5.550;2023-04-12T04:02:04;4.38;;;1.30;;
33926;SDS011;20485;50.992;5.550;2023-04-12T04:04:31;12.00;;;1.38;;
33926;SDS011;20485;50.992;5.550;2023-04-12T04:06:56;5.03;;;1.00;;
33926;SDS011;20485;50.992;5.550;2023-04-12T04:09:22;3.42;;;1.27;;
33926;SDS011;20485;50.992;5.550;2023-04-12T04:11:47;4.85;;;1.50;;
33926;SDS011;20485;50.992;5.550;2023-04-12T04:14:14;3.55;;;1.23;;
33926;SDS011;20485;50.992;5.550;2023-04-12T04:16:40;5.35;;;1.65;;
33926;SDS011;20485;50.992;5.550;2023-04-12T04:19:06;2.40;;;0.95;;
33926;SDS011;20485;50.992;5.550;2023-04-12T04:21:32;1.45;;;0.90;;
33926;SDS011;20485;50.992;5.550;2023-04-12T04:23:58;6.93;;;1.50;;
33926;SDS011;20485;50.992;5.550;2023-04-12T04:26:25;4.32;;;1.23;;
33926;SDS011;20485;50.992;5.550;2023-04-12T04:28:58;5.57;;;1.35;;
33926;SDS011;20485;50.992;5.550;2023-04-12T04:31:28;6.15;;;1.27;;
33926;SDS011;20485;50.992;5.550;2023-04-12T04:34:04;5.47;;;1.15;;
33926;SDS011;20485;50.992;5.550;2023-04-12T04:36:34;5.05;;;1.13;;
33926;SDS011;20485;50.992;5.550;2023-04-12T04:39:01;4.40;;;1.10;;
33926;SDS011;20485;50.992;5.550;2023-04-12T04:41:28;2.13;;;1.08;;
33926;SDS011;20485;50.992;5.550;2023-04-12T04:43:58;5.75;;;1.27;;
33926;SDS011;20485;50.992;5.550;2023-04-12T04:46:24;4.93;;;1.25;;
33926;SDS011;20485;50.992;5.550;2023-04-12T04:48:54;3.22;;;1.33;;
33926;SDS011;20485;50.992;5.550;2023-04-12T04:51:20;3.00;;;1.10;;
33926;SDS011;20485;50.992;5.550;2023-04-12T04:53:46;4.38;;;1.17;;
33926;SDS011;20485;50.992;5.550;2023-04-12T04:56:11;3.20;;;1.20;;
33926;SDS011;20485;50.992;5.550;2023-04-12T04:58:37;3.67;;;0.90;;
33926;SDS011;20485;50.992;5.550;2023-04-12T05:01:03;3.60;;;0.95;;
33926;SDS011;20485;50.992;5.550;2023-04-12T05:03:31;3.85;;;0.90;;
33926;SDS011;20485;50.992;5.550;2023-04-12T05:05:58;3.80;;;1.05;;
33926;SDS011;20485;50.992;5.550;2023-04-12T05:08:25;2.30;;;1.10;;
33926;SDS011;20485;50.992;5.550;2023-04-12T05:10:53;7.15;;;0.93;;
33926;SDS011;20485;50.992;5.550;2023-04-12T05:13:19;1.95;;;1.00;;
33926;SDS011;20485;50.992;5.550;2023-04-12T05:15:46;2.78;;;1.08;;
33926;SDS011;20485;50.992;5.550;2023-04-12T05:18:12;3.00;;;1.05;;
33926;SDS011;20485;50.992;5.550;2023-04-12T05:20:38;8.00;;;1.00;;
33926;SDS011;20485;50.992;5.550;2023-04-12T05:23:04;5.10;;;1.73;;
33926;SDS011;20485;50.992;5.550;2023-04-12T05:25:30;5.68;;;0.95;;
33926;SDS011;20485;50.992;5.550;2023-04-12T05:27:57;6.60;;;1.10;;
33926;SDS011;20485;50.992;5.550;2023-04-12T05:30:22;4.63;;;1.05;;
33926;SDS011;20485;50.992;5.550;2023-04-12T05:32:48;2.45;;;1.20;;
33926;SDS011;20485;50.992;5.550;2023-04-12T05:35:14;4.30;;;1.10;;
33926;SDS011;20485;50.992;5.550;2023-04-12T05:37:40;2.50;;;0.80;;
33926;SDS011;20485;50.992;5.550;2023-04-12T05:40:05;4.78;;;1.20;;
33926;SDS011;20485;50.992;5.550;2023-04-12T05:42:33;3.97;;;0.77;;
33926;SDS011;20485;50.992;5.550;2023-04-12T05:45:03;1.55;;;1.10;;
33926;SDS011;20485;50.992;5.550;2023-04-12T05:47:29;6.78;;;1.15;;
33926;SDS011;20485;50.992;5.550;2023-04-12T05:49:55;3.05;;;1.00;;
33926;SDS011;20485;50.992;5.550;2023-04-12T05:52:21;3.70;;;1.00;;
33926;SDS011;20485;50.992;5.550;2023-04-12T05:54:47;4.07;;;0.98;;
33926;SDS011;20485;50.992;5.550;2023-04-12T05:57:13;5.13;;;0.70;;
33926;SDS011;20485;50.992;5.550;2023-04-12T05:59:42;3.38;;;0.90;;
33926;SDS011;20485;50.992;5.550;2023-04-12T06:02:10;1.88;;;1.08;;
33926;SDS011;20485;50.992;5.550;2023-04-12T06:04:36;4.68;;;0.85;;
33926;SDS011;20485;50.992;5.550;2023-04-12T06:07:04;9.18;;;0.95;;
33926;SDS011;20485;50.992;5.550;2023-04-12T06:09:30;1.98;;;0.98;;
33926;SDS011;20485;50.992;5.550;2023-04-12T06:11:56;2.53;;;0.80;;
33926;SDS011;20485;50.992;5.550;2023-04-12T06:14:22;1.55;;;0.80;;
33926;SDS011;20485;50.992;5.550;2023-04-12T06:16:47;3.22;;;1.05;;
33926;SDS011;20485;50.992;5.550;2023-04-12T06:19:13;1.67;;;0.68;;
33926;SDS011;20485;50.992;5.550;2023-04-12T06:21:39;1.73;;;0.95;;
33926;SDS011;20485;50.992;5.550;2023-04-12T06:24:05;5.18;;;1.10;;
33926;SDS011;20485;50.992;5.550;2023-04-12T06:26:31;2.88;;;1.00;;
33926;SDS011;20485;50.992;5.550;2023-04-12T06:28:57;8.20;;;1.20;;
33926;SDS011;20485;50.992;5.550;2023-04-12T06:31:22;5.50;;;1.00;;
33926;SDS011;20485;50.992;5.550;2023-04-12T06:33:48;2.95;;;0.85;;
33926;SDS011;20485;50.992;5.550;2023-04-12T06:36:14;1.42;;;0.65;;
33926;SDS011;20485;50.992;5.550;2023-04-12T06:38:40;1.50;;;0.85;;
33926;SDS011;20485;50.992;5.550;2023-04-12T06:41:06;1.98;;;0.90;;
33926;SDS011;20485;50.992;5.550;2023-04-12T06:43:32;2.15;;;0.98;;
33926;SDS011;20485;50.992;5.550;2023-04-12T06:45:57;4.47;;;0.85;;
33926;SDS011;20485;50.992;5.550;2023-04-12T06:48:26;3.20;;;0.90;;
33926;SDS011;20485;50.992;5.550;2023-04-12T06:50:52;3.90;;;0.77;;
33926;SDS011;20485;50.992;5.550;2023-04-12T06:53:18;3.72;;;1.00;;
33926;SDS011;20485;50.992;5.550;2023-04-12T06:55:44;2.22;;;0.90;;
33926;SDS011;20485;50.992;5.550;2023-04-12T06:58:10;4.20;;;0.90;;
33926;SDS011;20485;50.992;5.550;2023-04-12T07:00:36;5.30;;;1.30;;
33926;SDS011;20485;50.992;5.550;2023-04-12T07:03:02;4.60;;;0.90;;
33926;SDS011;20485;50.992;5.550;2023-04-12T07:05:27;1.23;;;0.90;;
33926;SDS011;20485;50.992;5.550;2023-04-12T07:07:53;2.38;;;1.13;;
33926;SDS011;20485;50.992;5.550;2023-04-12T07:10:19;1.88;;;1.20;;
33926;SDS011;20485;50.992;5.550;2023-04-12T07:12:44;6.43;;;1.27;;
33926;SDS011;20485;50.992;5.550;2023-04-12T07:15:10;2.38;;;0.98;;
33926;SDS011;20485;50.992;5.550;2023-04-12T07:17:36;3.33;;;1.10;;
33926;SDS011;20485;50.992;5.550;2023-04-12T07:20:02;4.10;;;1.30;;
33926;SDS011;20485;50.992;5.550;2023-04-12T07:22:28;2.90;;;1.00;;
33926;SDS011;20485;50.992;5.550;2023-04-12T07:24:54;6.03;;;1.20;;
33926;SDS011;20485;50.992;5.550;2023-04-12T07:27:20;6.93;;;1.00;;
33926;SDS011;20485;50.992;5.550;2023-04-12T07:29:45;1.75;;;0.85;;
33926;SDS011;20485;50.992;5.550;2023-04-12T07:32:11;3.38;;;1.40;;
33926;SDS011;20485;50.992;5.550;2023-04-12T07:34:37;5.60;;;1.30;;
33926;SDS011;20485;50.992;5.550;2023-04-12T07:37:03;5.50;;;1.38;;
33926;SDS011;20485;50.992;5.550;2023-04-12T07:39:29;3.13;;;1.25;;
33926;SDS011;20485;50.992;5.550;2023-04-12T07:41:55;13.93;;;1.33;;
33926;SDS011;20485;50.992;5.550;2023-04-12T07:44:21;3.63;;;1.33;;
33926;SDS011;20485;50.992;5.550;2023-04-12T07:46:47;4.10;;;1.27;;
33926;SDS011;20485;50.992;5.550;2023-04-12T07:49:13;9.40;;;1.50;;
33926;SDS011;20485;50.992;5.550;2023-04-12T07:51:39;4.32;;;1.40;;
33926;SDS011;20485;50.992;5.550;2023-04-12T07:54:06;11.57;;;1.70;;
33926;SDS011;20485;50.992;5.550;2023-04-12T07:56:32;8.10;;;1.58;;
33926;SDS011;20485;50.992;5.550;2023-04-12T07:58:59;4.78;;;1.38;;
33926;SDS011;20485;50.992;5.550;2023-04-12T08:01:25;11.68;;;1.45;;
33926;SDS011;20485;50.992;5.550;2023-04-12T08:03:50;7.13;;;1.35;;
33926;SDS011;20485;50.992;5.550;2023-04-12T08:06:16;8.07;;;1.73;;
33926;SDS011;20485;50.992;5.550;2023-04-12T08:08:42;4.85;;;1.30;;
33926;SDS011;20485;50.992;5.550;2023-04-12T08:11:08;8.60;;;1.70;;
33926;SDS011;20485;50.992;5.550;2023-04-12T08:13:34;10.65;;;1.95;;
33926;SDS011;20485;50.992;5.550;2023-04-12T08:16:00;10.50;;;1.60;;
33926;SDS011;20485;50.992;5.550;2023-04-12T08:18:26;8.25;;;1.88;;
33926;SDS011;20485;50.992;5.550;2023-04-12T08:20:53;8.45;;;1.83;;
33926;SDS011;20485;50.992;5.550;2023-04-12T08:23:19;11.02;;;1.73;;
33926;SDS011;20485;50.992;5.550;2023-04-12T08:25:45;11.43;;;1.80;;
33926;SDS011;20485;50.992;5.550;2023-04-12T08:28:11;9.30;;;2.42;;
33926;SDS011;20485;50.992;5.550;2023-04-12T08:30:37;10.70;;;1.52;;
33926;SDS011;20485;50.992;5.550;2023-04-12T08:33:03;4.65;;;1.40;;
33926;SDS011;20485;50.992;5.550;2023-04-12T08:35:29;9.30;;;1.90;;
33926;SDS011;20485;50.992;5.550;2023-04-12T08:37:55;6.55;;;1.35;;
33926;SDS011;20485;50.992;5.550;2023-04-12T08:40:21;7.28;;;1.83;;
33926;SDS011;20485;50.992;5.550;2023-04-12T08:42:47;5.55;;;1.60;;
33926;SDS011;20485;50.992;5.550;2023-04-12T08:45:13;6.32;;;1.42;;
33926;SDS011;20485;50.992;5.550;2023-04-12T08:47:42;9.95;;;2.05;;
33926;SDS011;20485;50.992;5.550;2023-04-12T08:50:10;6.07;;;1.77;;
33926;SDS011;20485;50.992;5.550;2023-04-12T08:52:38;8.75;;;1.92;;
33926;SDS011;20485;50.992;5.550;2023-04-12T08:55:04;10.15;;;2.08;;
33926;SDS011;20485;50.992;5.550;2023-04-12T08:57:31;10.52;;;2.33;;
33926;SDS011;20485;50.992;5.550;2023-04-12T09:00:00;9.20;;;1.73;;
33926;SDS011;20485;50.992;5.550;2023-04-12T09:02:27;7.50;;;1.80;;
33926;SDS011;20485;50.992;5.550;2023-04-12T09:04:53;12.07;;;2.05;;
33926;SDS011;20485;50.992;5.550;2023-04-12T09:07:20;9.82;;;2.05;;
33926;SDS011;20485;50.992;5.550;2023-04-12T09:09:52;11.65;;;1.95;;
33926;SDS011;20485;50.992;5.550;2023-04-12T09:12:19;14.93;;;2.42;;
33926;SDS011;20485;50.992;5.550;2023-04-12T09:14:47;11.85;;;1.80;;
33926;SDS011;20485;50.992;5.550;2023-04-12T09:17:28;8.68;;;1.90;;
33926;SDS011;20485;50.992;5.550;2023-04-12T09:19:54;10.65;;;1.67;;
33926;SDS011;20485;50.992;5.550;2023-04-12T09:22:36;11.80;;;2.80;;
33926;SDS011;20485;50.992;5.550;2023-04-12T09:25:09;13.75;;;2.75;;
33926;SDS011;20485;50.992;5.550;2023-04-12T09:27:48;15.20;;;2.20;;
33926;SDS011;20485;50.992;5.550;2023-04-12T09:30:15;19.58;;;2.70;;
33926;SDS011;20485;50.992;5.550;2023-04-12T09:32:42;26.50;;;3.90;;
33926;SDS011;20485;50.992;5.550;2023-04-12T09:35:08;13.75;;;2.53;;
33926;SDS011;20485;50.992;5.550;2023-04-12T09:37:34;19.00;;;2.90;;
33926;SDS011;20485;50.992;5.550;2023-04-12T09:42:28;15.45;;;2.70;;
33926;SDS011;20485;50.992;5.550;2023-04-12T09:44:55;23.90;;;3.20;;
33926;SDS011;20485;50.992;5.550;2023-04-12T09:47:23;19.25;;;2.83;;
33926;SDS011;20485;50.992;5.550;2023-04-12T09:50:01;20.50;;;2.80;;
33926;SDS011;20485;50.992;5.550;2023-04-12T09:52:34;30.95;;;3.47;;
33926;SDS011;20485;50.992;5.550;2023-04-12T09:55:01;18.48;;;2.50;;
33926;SDS011;20485;50.992;5.550;2023-04-12T09:57:33;17.75;;;3.10;;
33926;SDS011;20485;50.992;5.550;2023-04-12T10:00:10;28.60;;;3.47;;
33926;SDS011;20485;50.992;5.550;2023-04-12T10:02:41;23.38;;;2.85;;
33926;SDS011;20485;50.992;5.550;2023-04-12T10:05:12;22.25;;;3.35;;
33926;SDS011;20485;50.992;5.550;2023-04-12T10:07:39;21.58;;;3.15;;
33926;SDS011;20485;50.992;5.550;2023-04-12T10:10:12;15.63;;;2.72;;
33926;SDS011;20485;50.992;5.550;2023-04-12T10:12:39;30.27;;;3.90;;
33926;SDS011;20485;50.992;5.550;2023-04-12T10:15:05;24.25;;;3.42;;
33926;SDS011;20485;50.992;5.550;2023-04-12T10:17:43;25.05;;;3.50;;
33926;SDS011;20485;50.992;5.550;2023-04-12T10:20:17;21.48;;;2.63;;
33926;SDS011;20485;50.992;5.550;2023-04-12T10:22:45;25.67;;;4.03;;
33926;SDS011;20485;50.992;5.550;2023-04-12T10:25:13;19.80;;;3.33;;
33926;SDS011;20485;50.992;5.550;2023-04-12T10:27:41;21.63;;;3.47;;
33926;SDS011;20485;50.992;5.550;2023-04-12T10:30:17;23.38;;;2.85;;
33926;SDS011;20485;50.992;5.550;2023-04-12T10:32:45;17.67;;;2.83;;
33926;SDS011;20485;50.992;5.550;2023-04-12T10:35:11;21.63;;;3.17;;
33926;SDS011;20485;50.992;5.550;2023-04-12T10:40:25;21.08;;;3.10;;
33926;SDS011;20485;50.992;5.550;2023-04-12T10:45:48;26.77;;;2.80;;
33926;SDS011;20485;50.992;5.550;2023-04-12T10:53:41;18.45;;;3.15;;
33926;SDS011;20485;50.992;5.550;2023-04-12T10:59:02;21.77;;;3.63;;
33926;SDS011;20485;50.992;5.550;2023-04-12T11:01:29;26.10;;;2.92;;
33926;SDS011;20485;50.992;5.550;2023-04-12T11:04:05;19.90;;;3.25;;
33926;SDS011;20485;50.992;5.550;2023-04-12T11:11:49;20.58;;;3.08;;
33926;SDS011;20485;50.992;5.550;2023-04-12T11:14:16;18.80;;;2.83;;
33926;SDS011;20485;50.992;5.550;2023-04-12T11:19:30;23.00;;;3.22;;
33926;SDS011;20485;50.992;5.550;2023-04-12T11:21:56;26.10;;;3.97;;
33926;SDS011;20485;50.992;5.550;2023-04-12T11:24:23;20.80;;;2.88;;
33926;SDS011;20485;50.992;5.550;2023-04-12T11:26:50;18.05;;;3.05;;
33926;SDS011;20485;50.992;5.550;2023-04-12T11:29:22;24.75;;;3.25;;
33926;SDS011;20485;50.992;5.550;2023-04-12T11:31:48;24.55;;;2.95;;
33926;SDS011;20485;50.992;5.550;2023-04-12T11:34:17;16.15;;;2.72;;
33926;SDS011;20485;50.992;5.550;2023-04-12T11:36:44;22.98;;;3.30;;
33926;SDS011;20485;50.992;5.550;2023-04-12T11:39:11;26.20;;;3.55;;
33926;SDS011;20485;50.992;5.550;2023-04-12T11:41:42;21.08;;;3.38;;
33926;SDS011;20485;50.992;5.550;2023-04-12T11:44:08;20.40;;;2.95;;
33926;SDS011;20485;50.992;5.550;2023-04-12T11:46:34;23.85;;;3.55;;
33926;SDS011;20485;50.992;5.550;2023-04-12T11:49:00;19.38;;;3.25;;
33926;SDS011;20485;50.992;5.550;2023-04-12T11:51:26;21.80;;;2.88;;
33926;SDS011;20485;50.992;5.550;2023-04-12T11:53:53;15.10;;;2.63;;
33926;SDS011;20485;50.992;5.550;2023-04-12T11:56:21;17.27;;;2.65;;
33926;SDS011;20485;50.992;5.550;2023-04-12T11:58:46;13.73;;;3.08;;
33926;SDS011;20485;50.992;5.550;2023-04-12T12:01:13;18.98;;;2.90;;
33926;SDS011;20485;50.992;5.550;2023-04-12T12:03:40;17.35;;;2.55;;
33926;SDS011;20485;50.992;5.550;2023-04-12T12:06:06;19.73;;;3.35;;
33926;SDS011;20485;50.992;5.550;2023-04-12T12:08:33;21.70;;;2.85;;
33926;SDS011;20485;50.992;5.550;2023-04-12T12:11:03;20.58;;;2.70;;
33926;SDS011;20485;50.992;5.550;2023-04-12T12:13:44;14.35;;;2.60;;
33926;SDS011;20485;50.992;5.550;2023-04-12T12:16:14;9.95;;;1.95;;
33926;SDS011;20485;50.992;5.550;2023-04-12T12:18:41;18.83;;;2.40;;
33926;SDS011;20485;50.992;5.550;2023-04-12T12:21:08;15.63;;;2.40;;
33926;SDS011;20485;50.992;5.550;2023-04-12T12:23:35;15.82;;;2.25;;
33926;SDS011;20485;50.992;5.550;2023-04-12T12:26:01;16.52;;;2.28;;
33926;SDS011;20485;50.992;5.550;2023-04-12T12:28:28;15.95;;;2.13;;
33926;SDS011;20485;50.992;5.550;2023-04-12T12:30:54;18.42;;;2.47;;
33926;SDS011;20485;50.992;5.550;2023-04-12T12:33:22;20.05;;;2.83;;
33926;SDS011;20485;50.992;5.550;2023-04-12T12:35:57;12.02;;;2.30;;
33926;SDS011;20485;50.992;5.550;2023-04-12T12:38:23;15.10;;;2.38;;
33926;SDS011;20485;50.992;5.550;2023-04-12T12:40:48;17.13;;;2.22;;
33926;SDS011;20485;50.992;5.550;2023-04-12T12:43:18;15.00;;;2.22;;
33926;SDS011;20485;50.992;5.550;2023-04-12T12:45:47;13.43;;;2.28;;
33926;SDS011;20485;50.992;5.550;2023-04-12T12:48:12;12.20;;;2.25;;
33926;SDS011;20485;50.992;5.550;2023-04-12T12:50:38;8.38;;;1.55;;
33926;SDS011;20485;50.992;5.550;2023-04-12T12:53:04;13.48;;;1.85;;
33926;SDS011;20485;50.992;5.550;2023-04-12T12:55:30;18.05;;;3.70;;
33926;SDS011;20485;50.992;5.550;2023-04-12T12:57:56;8.00;;;2.10;;
33926;SDS011;20485;50.992;5.550;2023-04-12T13:00:27;14.10;;;1.58;;
33926;SDS011;20485;50.992;5.550;2023-04-12T13:02:53;9.55;;;1.85;;
33926;SDS011;20485;50.992;5.550;2023-04-12T13:05:19;10.82;;;1.63;;
33926;SDS011;20485;50.992;5.550;2023-04-12T13:07:46;10.88;;;2.35;;
33926;SDS011;20485;50.992;5.550;2023-04-12T13:10:12;13.88;;;2.15;;
33926;SDS011;20485;50.992;5.550;2023-04-12T13:12:38;10.35;;;1.70;;
33926;SDS011;20485;50.992;5.550;2023-04-12T13:15:04;10.02;;;1.65;;
33926;SDS011;20485;50.992;5.550;2023-04-12T13:17:30;3.90;;;0.90;;
33926;SDS011;20485;50.992;5.550;2023-04-12T13:19:56;6.53;;;0.77;;
33926;SDS011;20485;50.992;5.550;2023-04-12T13:22:22;6.80;;;1.23;;
33926;SDS011;20485;50.992;5.550;2023-04-12T13:24:48;6.80;;;1.60;;
33926;SDS011;20485;50.992;5.550;2023-04-12T13:27:14;9.10;;;1.33;;
33926;SDS011;20485;50.992;5.550;2023-04-12T13:29:40;2.40;;;0.88;;
33926;SDS011;20485;50.992;5.550;2023-04-12T13:32:06;3.05;;;0.55;;
33926;SDS011;20485;50.992;5.550;2023-04-12T13:34:32;3.33;;;0.60;;
33926;SDS011;20485;50.992;5.550;2023-04-12T13:36:58;5.13;;;0.65;;
33926;SDS011;20485;50.992;5.550;2023-04-12T13:39:25;1.30;;;0.40;;
33926;SDS011;20485;50.992;5.550;2023-04-12T13:41:51;3.63;;;0.40;;
33926;SDS011;20485;50.992;5.550;2023-04-12T13:44:20;4.43;;;1.27;;
33926;SDS011;20485;50.992;5.550;2023-04-12T13:46:48;1.70;;;0.50;;
33926;SDS011;20485;50.992;5.550;2023-04-12T13:49:14;3.80;;;0.52;;
33926;SDS011;20485;50.992;5.550;2023-04-12T13:51:40;3.67;;;1.17;;
33926;SDS011;20485;50.992;5.550;2023-04-12T13:54:06;4.20;;;0.73;;
33926;SDS011;20485;50.992;5.550;2023-04-12T13:56:32;6.05;;;0.90;;
33926;SDS011;20485;50.992;5.550;2023-04-12T13:58:58;4.85;;;0.75;;
33926;SDS011;20485;50.992;5.550;2023-04-12T14:01:24;3.30;;;0.50;;
33926;SDS011;20485;50.992;5.550;2023-04-12T14:03:51;5.07;;;0.90;;
33926;SDS011;20485;50.992;5.550;2023-04-12T14:06:19;1.73;;;0.65;;
33926;SDS011;20485;50.992;5.550;2023-04-12T14:08:45;4.50;;;0.80;;
33926;SDS011;20485;50.992;5.550;2023-04-12T14:11:12;3.67;;;0.98;;
33926;SDS011;20485;50.992;5.550;2023-04-12T14:13:37;4.25;;;0.80;;
33926;SDS011;20485;50.992;5.550;2023-04-12T14:16:03;4.65;;;0.80;;
33926;SDS011;20485;50.992;5.550;2023-04-12T14:18:31;7.10;;;0.98;;
33926;SDS011;20485;50.992;5.550;2023-04-12T14:20:56;1.58;;;0.70;;
33926;SDS011;20485;50.992;5.550;2023-04-12T14:23:23;4.45;;;1.08;;
33926;SDS011;20485;50.992;5.550;2023-04-12T14:25:50;5.82;;;1.00;;
33926;SDS011;20485;50.992;5.550;2023-04-12T14:28:16;6.10;;;1.00;;
33926;SDS011;20485;50.992;5.550;2023-04-12T14:30:45;1.55;;;0.60;;
33926;SDS011;20485;50.992;5.550;2023-04-12T14:33:14;2.00;;;0.70;;
33926;SDS011;20485;50.992;5.550;2023-04-12T14:35:40;3.53;;;0.77;;
33926;SDS011;20485;50.992;5.550;2023-04-12T14:38:06;2.33;;;0.70;;
33926;SDS011;20485;50.992;5.550;2023-04-12T14:40:33;0.90;;;0.50;;
33926;SDS011;20485;50.992;5.550;2023-04-12T14:42:59;5.53;;;0.60;;
33926;SDS011;20485;50.992;5.550;2023-04-12T14:45:24;1.55;;;0.50;;
33926;SDS011;20485;50.992;5.550;2023-04-12T14:47:51;2.75;;;0.50;;
33926;SDS011;20485;50.992;5.550;2023-04-12T14:50:17;1.13;;;0.60;;
33926;SDS011;20485;50.992;5.550;2023-04-12T14:52:47;2.15;;;0.47;;
33926;SDS011;20485;50.992;5.550;2023-04-12T14:55:12;0.70;;;0.30;;
33926;SDS011;20485;50.992;5.550;2023-04-12T14:57:38;1.85;;;0.43;;
33926;SDS011;20485;50.992;5.550;2023-04-12T15:00:05;1.23;;;0.40;;
33926;SDS011;20485;50.992;5.550;2023-04-12T15:02:37;0.73;;;0.50;;
33926;SDS011;20485;50.992;5.550;2023-04-12T15:05:04;3.78;;;0.73;;
33926;SDS011;20485;50.992;5.550;2023-04-12T15:07:32;2.85;;;0.70;;
33926;SDS011;20485;50.992;5.550;2023-04-12T15:09:58;3.58;;;0.98;;
33926;SDS011;20485;50.992;5.550;2023-04-12T15:12:24;3.75;;;0.88;;
33926;SDS011;20485;50.992;5.550;2023-04-12T15:14:51;5.35;;;0.82;;
33926;SDS011;20485;50.992;5.550;2023-04-12T15:17:21;0.95;;;0.47;;
33926;SDS011;20485;50.992;5.550;2023-04-12T15:19:48;0.88;;;0.40;;
33926;SDS011;20485;50.992;5.550;2023-04-12T15:22:14;6.57;;;0.70;;